Time;durP1;ratioP1;P1;durP2;ratioP2;P2;SDS_P1;SDS_P2;PMS_P1;PMS_P2;Temp;Humidity;BMP_temperature;BMP_pressure;BME280_temperature;BME280_humidity;BME280_pressure;Samples;Min_cycle;Max_cycle;Signal;HPM_P1;HPM_P2
2021/04/24 00:01:17;;;;;;;13.02;6.25;;;8.70;67.30;;;;;;5092395;28;20029;-73
2021/04/24 00:03:44;;;;;;;10.57;6.10;;;8.70;67.40;;;;;;5092625;28;20032;-73
2021/04/24 00:06:09;;;;;;;13.70;6.43;;;8.70;67.40;;;;;;5092592;28;20118;-73
2021/04/24 00:08:36;;;;;;;10.27;5.32;;;8.70;67.30;;;;;;5092970;28;20111;-73
2021/04/24 00:11:02;;;;;;;17.15;6.22;;;8.60;67.30;;;;;;5068277;28;20050;-73
2021/04/24 00:13:28;;;;;;;9.98;5.68;;;8.60;67.40;;;;;;5093349;28;20031;-73
2021/04/24 00:15:54;;;;;;;12.55;5.63;;;8.60;67.40;;;;;;5075150;28;20027;-73
2021/04/24 00:18:20;;;;;;;15.85;5.93;;;8.60;67.40;;;;;;5093694;28;20489;-73
2021/04/24 00:20:45;;;;;;;11.05;5.53;;;8.50;67.20;;;;;;5092198;28;20027;-72
2021/04/24 00:23:12;;;;;;;13.40;5.70;;;8.50;67.10;;;;;;5072215;28;20032;-73
2021/04/24 00:25:37;;;;;;;15.73;5.93;;;8.40;67.00;;;;;;5092482;28;20507;-73
2021/04/24 00:28:04;;;;;;;12.73;5.75;;;8.50;67.20;;;;;;5092288;28;20052;-73
2021/04/24 00:30:29;;;;;;;10.50;5.70;;;8.40;67.00;;;;;;5091940;28;20533;-73
2021/04/24 00:32:55;;;;;;;11.48;5.60;;;8.40;67.10;;;;;;5092295;28;20032;-73
2021/04/24 00:35:21;;;;;;;11.25;5.13;;;8.40;67.20;;;;;;5092110;28;20030;-73
2021/04/24 00:37:48;;;;;;;9.75;5.75;;;8.30;67.20;;;;;;5091947;28;20020;-73
2021/04/24 00:40:14;;;;;;;14.10;6.60;;;8.30;67.20;;;;;;5093078;28;20032;-72
2021/04/24 00:42:41;;;;;;;12.68;6.20;;;8.30;67.40;;;;;;5093604;28;20027;-72
2021/04/24 00:45:10;;;;;;;10.10;5.85;;;8.20;67.40;;;;;;5091434;28;20035;-73
2021/04/24 00:47:35;;;;;;;13.20;6.45;;;8.20;67.40;;;;;;5093516;28;20026;-73
2021/04/24 00:50:01;;;;;;;15.68;6.00;;;8.20;67.50;;;;;;5091521;28;20111;-73
2021/04/24 00:52:27;;;;;;;16.67;6.18;;;8.10;67.50;;;;;;5092332;28;20020;-73
2021/04/24 00:54:52;;;;;;;12.15;6.30;;;8.10;67.70;;;;;;5093006;28;20024;-73
2021/04/24 00:57:19;;;;;;;14.27;6.07;;;8.10;67.90;;;;;;5075042;28;20038;-72
2021/04/24 00:59:47;;;;;;;10.90;6.18;;;8.00;68.20;;;;;;5091178;28;20028;-73
2021/04/24 01:02:12;;;;;;;9.10;5.55;;;8.00;68.10;;;;;;5092024;28;20024;-73
2021/04/24 01:04:38;;;;;;;14.50;6.00;;;7.90;68.10;;;;;;5061923;28;20761;-73
2021/04/24 01:07:06;;;;;;;11.20;5.90;;;7.90;68.10;;;;;;5091766;28;20028;-72
2021/04/24 01:09:32;;;;;;;13.95;6.43;;;7.90;68.20;;;;;;5091092;28;20032;-73
2021/04/24 01:11:58;;;;;;;14.73;6.03;;;7.80;68.30;;;;;;5092250;28;20024;-73
2021/04/24 01:14:24;;;;;;;13.57;6.03;;;7.80;68.50;;;;;;5092816;28;20036;-72
2021/04/24 01:16:49;;;;;;;11.32;5.85;;;7.80;68.50;;;;;;5091381;28;20468;-72
2021/04/24 01:19:20;;;;;;;14.60;6.47;;;7.80;68.60;;;;;;5091465;28;20040;-72
2021/04/24 01:21:48;;;;;;;10.80;5.93;;;7.80;68.60;;;;;;5092643;28;20035;-73
2021/04/24 01:24:14;;;;;;;10.93;5.80;;;7.80;68.50;;;;;;5091318;28;20389;-73
2021/04/24 01:26:39;;;;;;;9.18;6.25;;;7.80;68.60;;;;;;5091635;28;20036;-72
2021/04/24 01:29:06;;;;;;;11.55;6.30;;;7.70;68.70;;;;;;5091285;28;20136;-73
2021/04/24 01:31:33;;;;;;;10.07;5.72;;;7.70;68.70;;;;;;5092093;28;20081;-73
2021/04/24 01:33:59;;;;;;;13.48;6.05;;;7.70;68.80;;;;;;5092258;28;20426;-73
2021/04/24 01:36:25;;;;;;;20.95;7.20;;;7.60;68.80;;;;;;5092913;28;20025;-74
2021/04/24 01:38:50;;;;;;;12.52;5.78;;;7.60;69.00;;;;;;5092581;28;20031;-73
2021/04/24 01:41:16;;;;;;;12.75;6.28;;;7.60;69.10;;;;;;5090875;28;20114;-73
2021/04/24 01:43:41;;;;;;;15.35;6.68;;;7.60;69.10;;;;;;5090615;28;20032;-73
2021/04/24 01:46:07;;;;;;;14.75;6.65;;;7.50;69.10;;;;;;5091584;28;20027;-73
2021/04/24 01:48:33;;;;;;;12.75;6.00;;;7.50;69.20;;;;;;5090737;28;20066;-73
2021/04/24 01:50:58;;;;;;;11.70;6.50;;;7.40;69.40;;;;;;5095344;28;20095;-74
2021/04/24 01:53:24;;;;;;;11.50;6.03;;;7.40;69.30;;;;;;5094558;28;20056;-73
2021/04/24 01:55:51;;;;;;;13.05;6.45;;;7.40;69.40;;;;;;5078477;28;20028;-73
2021/04/24 01:58:21;;;;;;;13.13;6.28;;;7.40;69.50;;;;;;5096644;28;20034;-73
2021/04/24 02:00:54;;;;;;;10.90;5.75;;;7.30;69.50;;;;;;5096808;28;20120;-72
2021/04/24 02:03:20;;;;;;;14.25;6.35;;;7.30;69.70;;;;;;5095024;28;20039;-73
2021/04/24 02:05:47;;;;;;;10.45;5.88;;;7.30;69.70;;;;;;5096297;28;20103;-72
2021/04/24 02:08:18;;;;;;;14.30;6.18;;;7.30;69.70;;;;;;5094777;28;20046;-73
2021/04/24 02:10:47;;;;;;;12.40;6.03;;;7.30;69.90;;;;;;5094748;28;20152;-73
2021/04/24 02:13:16;;;;;;;17.98;6.20;;;7.20;70.00;;;;;;5094861;28;20480;-73
2021/04/24 02:15:42;;;;;;;12.55;5.72;;;7.20;70.20;;;;;;5095016;28;20485;-73
2021/04/24 02:18:09;;;;;;;12.93;5.95;;;7.10;70.30;;;;;;5095988;28;20073;-73
2021/04/24 02:20:36;;;;;;;11.35;6.45;;;7.00;70.50;;;;;;5095042;28;20118;-73
2021/04/24 02:23:03;;;;;;;12.02;5.82;;;7.00;70.60;;;;;;5095581;28;20056;-73
2021/04/24 02:25:28;;;;;;;11.65;6.47;;;7.00;70.70;;;;;;5096374;28;20059;-72
2021/04/24 02:27:55;;;;;;;11.93;6.13;;;6.90;71.40;;;;;;5077335;28;20083;-73
2021/04/24 02:30:21;;;;;;;13.85;6.68;;;6.90;71.00;;;;;;5074601;28;20101;-73
2021/04/24 02:32:48;;;;;;;12.95;6.05;;;6.80;71.10;;;;;;5084046;28;20032;-73
2021/04/24 02:35:27;;;;;;;13.15;6.47;;;6.80;71.30;;;;;;5075775;28;20381;-73
2021/04/24 02:37:53;;;;;;;11.32;6.22;;;6.80;71.50;;;;;;5085790;28;20532;-72
2021/04/24 02:40:21;;;;;;;10.13;5.68;;;6.70;71.40;;;;;;5094444;28;20071;-73
2021/04/24 02:42:47;;;;;;;13.32;7.10;;;6.70;71.60;;;;;;5095472;28;20106;-73
2021/04/24 02:45:14;;;;;;;11.88;5.95;;;6.70;71.60;;;;;;5095290;28;20032;-73
2021/04/24 02:47:40;;;;;;;12.38;6.78;;;6.70;71.70;;;;;;5074036;28;20028;-73
2021/04/24 02:50:09;;;;;;;12.50;6.88;;;6.70;71.80;;;;;;5092907;28;20170;-73
2021/04/24 02:52:35;;;;;;;11.15;6.32;;;6.70;71.90;;;;;;5094517;28;20079;-74
2021/04/24 02:55:01;;;;;;;14.45;6.78;;;6.70;72.00;;;;;;5094032;28;20039;-72
2021/04/24 02:57:27;;;;;;;11.25;7.00;;;6.60;71.90;;;;;;5094455;28;20040;-73
2021/04/24 02:59:53;;;;;;;15.18;6.88;;;6.70;71.90;;;;;;5094900;28;20028;-73
2021/04/24 03:02:18;;;;;;;12.68;6.57;;;6.70;71.80;;;;;;5094109;28;20036;-72
2021/04/24 03:04:45;;;;;;;12.93;6.75;;;6.70;71.90;;;;;;5095101;28;20028;-72
2021/04/24 03:07:11;;;;;;;12.60;7.18;;;6.70;71.90;;;;;;5093854;28;20078;-73
2021/04/24 03:09:37;;;;;;;13.02;6.88;;;6.60;71.90;;;;;;5094873;28;20024;-73
2021/04/24 03:12:03;;;;;;;13.05;6.55;;;6.60;72.00;;;;;;5093575;28;20036;-72
2021/04/24 03:14:29;;;;;;;15.18;6.95;;;6.60;72.20;;;;;;5094871;28;20032;-73
2021/04/24 03:16:55;;;;;;;13.13;6.75;;;6.50;72.20;;;;;;5094195;28;20016;-72
2021/04/24 03:19:20;;;;;;;15.65;6.88;;;6.50;72.30;;;;;;5095017;28;20028;-72
2021/04/24 03:21:46;;;;;;;13.75;6.60;;;6.50;72.30;;;;;;5094896;28;20032;-72
2021/04/24 03:24:12;;;;;;;12.90;6.30;;;6.50;72.40;;;;;;5060240;28;20120;-72
2021/04/24 03:26:37;;;;;;;12.90;7.75;;;6.50;72.60;;;;;;5093909;28;20043;-75
2021/04/24 03:29:04;;;;;;;14.52;6.75;;;6.50;72.60;;;;;;5093838;28;20047;-75
2021/04/24 03:31:30;;;;;;;15.95;6.72;;;6.40;72.50;;;;;;5093005;28;20115;-75
2021/04/24 03:33:55;;;;;;;13.98;7.10;;;6.40;72.70;;;;;;5093041;28;20071;-75
2021/04/24 03:36:21;;;;;;;14.88;7.15;;;6.40;72.90;;;;;;5092933;28;20039;-75
2021/04/24 03:38:47;;;;;;;15.73;6.97;;;6.30;73.00;;;;;;5094004;28;20114;-75
2021/04/24 03:41:13;;;;;;;15.38;7.10;;;6.30;73.20;;;;;;5093683;28;20032;-75
2021/04/24 03:43:39;;;;;;;24.85;7.93;;;6.30;73.30;;;;;;5094389;28;20024;-75
2021/04/24 03:46:04;;;;;;;15.13;7.25;;;6.30;73.50;;;;;;5093886;28;20032;-75
2021/04/24 03:48:31;;;;;;;15.95;7.55;;;6.30;73.50;;;;;;5092662;28;20035;-75
2021/04/24 03:50:57;;;;;;;15.93;7.30;;;6.20;73.70;;;;;;5093708;28;20031;-75
2021/04/24 03:53:23;;;;;;;14.02;7.57;;;6.20;73.80;;;;;;5092802;28;20380;-75
2021/04/24 03:55:49;;;;;;;19.10;8.15;;;6.20;73.80;;;;;;5093878;28;20077;-75
2021/04/24 03:58:14;;;;;;;17.25;7.72;;;6.10;73.80;;;;;;5092173;28;20035;-75
2021/04/24 04:00:40;;;;;;;17.65;7.47;;;6.10;73.90;;;;;;5092535;28;20035;-75
2021/04/24 04:03:08;;;;;;;15.23;8.20;;;6.10;74.10;;;;;;5092227;28;20062;-75
2021/04/24 04:05:43;;;;;;;14.90;7.75;;;6.10;74.30;;;;;;5093838;28;20066;-75
2021/04/24 04:08:11;;;;;;;17.90;7.88;;;6.10;74.30;;;;;;5091718;28;20039;-75
2021/04/24 04:10:38;;;;;;;17.10;8.13;;;6.10;74.40;;;;;;5091842;28;20052;-75
2021/04/24 04:13:06;;;;;;;14.93;7.53;;;6.00;74.50;;;;;;5091098;28;20027;-75
2021/04/24 04:15:33;;;;;;;16.40;7.80;;;6.00;74.50;;;;;;5092622;28;20446;-75
2021/04/24 04:18:25;;;;;;;15.80;8.00;;;6.00;74.70;;;;;;5092624;28;20032;-75
2021/04/24 04:20:53;;;;;;;23.27;8.50;;;6.00;74.80;;;;;;5082593;28;20105;-75
2021/04/24 04:23:20;;;;;;;23.70;8.50;;;6.00;74.90;;;;;;5091834;28;20106;-75
2021/04/24 04:25:47;;;;;;;15.93;7.88;;;6.00;75.00;;;;;;5093348;28;20028;-75
2021/04/24 04:28:13;;;;;;;18.40;8.32;;;6.00;74.90;;;;;;5092644;28;20040;-75
2021/04/24 04:30:40;;;;;;;18.10;8.70;;;6.00;75.00;;;;;;5091924;28;20116;-75
2021/04/24 04:33:06;;;;;;;14.30;8.02;;;5.90;75.00;;;;;;5093785;28;20035;-75
2021/04/24 04:35:33;;;;;;;18.83;8.40;;;5.90;75.00;;;;;;5091883;28;20489;-75
2021/04/24 04:37:59;;;;;;;17.92;9.02;;;5.90;75.20;;;;;;5092968;28;20032;-75
2021/04/24 04:40:25;;;;;;;16.42;8.25;;;5.80;75.30;;;;;;5091814;28;20038;-75
2021/04/24 04:42:51;;;;;;;18.75;8.85;;;5.80;75.50;;;;;;5093353;28;20117;-75
2021/04/24 04:45:18;;;;;;;17.65;8.40;;;5.90;75.50;;;;;;5092672;28;20028;-75
2021/04/24 04:47:44;;;;;;;17.95;8.65;;;5.90;75.40;;;;;;5091688;28;20039;-75
2021/04/24 04:50:13;;;;;;;18.27;8.48;;;5.90;75.60;;;;;;5092521;28;20039;-75
2021/04/24 04:52:39;;;;;;;21.67;9.13;;;5.90;75.60;;;;;;5090986;28;20097;-75
2021/04/24 04:55:07;;;;;;;17.52;8.77;;;5.90;75.60;;;;;;5093305;28;20032;-75
2021/04/24 04:57:33;;;;;;;16.88;8.40;;;5.90;75.60;;;;;;5091537;28;20119;-75
2021/04/24 04:59:59;;;;;;;16.98;9.05;;;5.90;75.70;;;;;;5092904;28;20024;-75
2021/04/24 05:02:25;;;;;;;16.13;8.27;;;6.00;75.70;;;;;;5091921;28;20043;-75
2021/04/24 05:04:50;;;;;;;17.42;8.38;;;6.00;75.50;;;;;;5092385;28;20103;-75
2021/04/24 05:07:16;;;;;;;15.25;8.45;;;6.00;75.30;;;;;;5075022;28;20081;-75
2021/04/24 05:09:42;;;;;;;16.25;8.65;;;6.00;75.30;;;;;;5091136;28;20081;-75
2021/04/24 05:12:08;;;;;;;23.00;9.57;;;6.00;75.40;;;;;;5091083;28;20085;-75
2021/04/24 05:14:35;;;;;;;17.90;8.85;;;6.00;75.40;;;;;;5092468;28;20016;-75
2021/04/24 05:17:01;;;;;;;21.60;8.77;;;6.00;75.50;;;;;;5092974;28;20023;-75
2021/04/24 05:19:27;;;;;;;20.58;8.65;;;6.10;75.60;;;;;;5092214;28;20508;-75
2021/04/24 05:21:52;;;;;;;14.45;7.88;;;6.00;75.50;;;;;;5093445;28;20043;-75
2021/04/24 05:24:18;;;;;;;17.75;9.32;;;6.10;76.10;;;;;;5091065;28;20032;-76
2021/04/24 05:26:44;;;;;;;21.63;9.38;;;6.10;75.30;;;;;;5092889;28;20506;-77
2021/04/24 05:29:10;;;;;;;18.83;8.23;;;6.20;75.30;;;;;;5091964;28;20044;-77
2021/04/24 05:31:36;;;;;;;19.30;8.23;;;6.20;75.20;;;;;;5091763;28;20384;-77
2021/04/24 05:34:03;;;;;;;15.20;8.52;;;6.30;75.00;;;;;;5093200;28;20024;-77
2021/04/24 05:36:29;;;;;;;17.00;8.48;;;6.40;74.80;;;;;;5093239;28;20062;-77
2021/04/24 05:38:55;;;;;;;19.55;8.45;;;6.40;74.70;;;;;;5092950;28;20039;-77
2021/04/24 05:41:22;;;;;;;20.20;8.55;;;6.40;74.60;;;;;;5091160;28;20044;-77
2021/04/24 05:43:51;;;;;;;20.45;8.93;;;6.50;74.60;;;;;;5092964;28;20028;-77
2021/04/24 05:46:18;;;;;;;19.40;9.02;;;6.50;74.40;;;;;;5092869;28;20402;-77
2021/04/24 05:48:43;;;;;;;18.90;8.85;;;6.70;74.30;;;;;;5091677;28;20024;-77
2021/04/24 05:51:09;;;;;;;16.90;8.93;;;6.70;74.20;;;;;;5091700;28;20028;-77
2021/04/24 05:53:35;;;;;;;17.77;8.02;;;6.70;74.00;;;;;;5093255;28;20048;-77
2021/04/24 05:56:01;;;;;;;20.17;8.93;;;6.70;73.70;;;;;;5091658;28;20037;-77
2021/04/24 05:58:27;;;;;;;14.40;8.30;;;6.90;73.80;;;;;;5090883;28;20039;-77
2021/04/24 06:00:52;;;;;;;16.67;8.20;;;6.90;74.50;;;;;;5092909;28;20070;-77
2021/04/24 06:03:18;;;;;;;19.52;8.07;;;6.90;73.80;;;;;;5091862;28;20414;-77
2021/04/24 06:05:44;;;;;;;20.80;8.25;;;6.90;74.10;;;;;;5091763;28;20059;-77
2021/04/24 06:08:09;;;;;;;17.88;8.85;;;6.90;73.90;;;;;;5074672;28;20085;-77
2021/04/24 06:10:35;;;;;;;17.95;8.15;;;7.00;74.00;;;;;;5092742;28;20033;-77
2021/04/24 06:13:01;;;;;;;18.90;8.18;;;7.00;73.90;;;;;;5092759;28;20020;-77
2021/04/24 06:15:27;;;;;;;20.92;8.25;;;7.10;74.00;;;;;;5091270;28;20365;-77
2021/04/24 06:17:52;;;;;;;20.23;8.88;;;7.10;73.70;;;;;;5092595;28;20421;-77
2021/04/24 06:20:18;;;;;;;17.52;8.50;;;7.20;73.80;;;;;;5091394;28;20032;-77
2021/04/24 06:22:44;;;;;;;22.70;8.63;;;7.20;73.60;;;;;;5074934;28;20393;-77
2021/04/24 06:25:13;;;;;;;16.40;8.02;;;7.20;74.20;;;;;;5092555;28;20032;-77
2021/04/24 06:27:38;;;;;;;22.13;8.80;;;7.30;73.60;;;;;;5092614;28;20039;-77
2021/04/24 06:30:06;;;;;;;17.52;8.40;;;7.40;73.40;;;;;;5091652;28;20278;-77
2021/04/24 06:32:32;;;;;;;18.38;9.07;;;7.40;73.20;;;;;;5085937;28;20055;-76
2021/04/24 06:34:57;;;;;;;17.95;8.73;;;7.50;72.90;;;;;;5093650;28;20028;-76
2021/04/24 06:37:23;;;;;;;15.70;7.80;;;7.60;72.90;;;;;;5095252;28;20020;-77
2021/04/24 06:39:48;;;;;;;18.48;8.45;;;7.70;72.60;;;;;;5096248;28;20027;-77
2021/04/24 06:42:15;;;;;;;19.55;8.38;;;7.90;72.50;;;;;;5095010;28;20103;-76
2021/04/24 06:44:41;;;;;;;15.75;7.70;;;7.90;72.20;;;;;;5094341;28;20048;-77
2021/04/24 06:47:07;;;;;;;23.13;8.32;;;8.00;71.90;;;;;;5096018;28;20543;-76
2021/04/24 06:49:32;;;;;;;16.23;8.50;;;8.20;71.70;;;;;;5094505;28;20111;-77
2021/04/24 06:51:58;;;;;;;16.55;7.57;;;8.30;71.00;;;;;;5095534;28;20032;-77
2021/04/24 06:54:23;;;;;;;16.77;7.80;;;8.50;70.50;;;;;;5094555;28;20150;-76
2021/04/24 06:56:49;;;;;;;15.20;8.15;;;8.60;70.10;;;;;;5094676;28;20036;-76
2021/04/24 06:59:15;;;;;;;16.77;7.72;;;8.70;69.40;;;;;;5094234;28;20032;-77
2021/04/24 07:01:40;;;;;;;18.40;8.20;;;8.70;69.30;;;;;;5095537;28;20028;-77
2021/04/24 07:04:06;;;;;;;14.48;7.88;;;8.70;69.40;;;;;;5094721;28;20081;-77
2021/04/24 07:06:31;;;;;;;15.60;7.97;;;8.70;69.30;;;;;;5094031;28;20032;-77
2021/04/24 07:08:57;;;;;;;15.48;8.13;;;8.80;69.30;;;;;;5094083;28;20044;-77
2021/04/24 07:11:23;;;;;;;17.48;8.20;;;8.90;69.00;;;;;;5093111;28;20032;-77
2021/04/24 07:13:51;;;;;;;16.48;7.60;;;9.10;68.50;;;;;;5096116;28;20035;-77
2021/04/24 07:16:16;;;;;;;18.10;8.00;;;9.10;68.10;;;;;;5095272;28;20039;-77
2021/04/24 07:18:43;;;;;;;14.18;7.25;;;9.20;67.60;;;;;;5093876;28;20020;-77
2021/04/24 07:21:10;;;;;;;16.65;7.75;;;9.20;67.30;;;;;;5093720;28;20032;-77
2021/04/24 07:23:37;;;;;;;15.15;7.55;;;9.30;67.20;;;;;;5093339;28;20034;-77
2021/04/24 07:26:04;;;;;;;13.73;8.02;;;9.40;67.00;;;;;;5092046;28;20020;-78
2021/04/24 07:28:30;;;;;;;23.65;8.70;;;9.40;66.70;;;;;;5094133;28;20044;-77
2021/04/24 07:30:56;;;;;;;14.98;7.53;;;9.50;66.60;;;;;;5094513;28;20138;-77
2021/04/24 07:33:23;;;;;;;17.08;8.30;;;9.70;66.40;;;;;;5094639;28;20499;-77
2021/04/24 07:35:50;;;;;;;15.70;7.90;;;9.80;65.50;;;;;;5092148;28;20039;-77
2021/04/24 07:38:16;;;;;;;16.40;7.63;;;10.00;65.00;;;;;;5094672;28;20020;-77
2021/04/24 07:40:41;;;;;;;14.10;7.28;;;10.20;64.40;;;;;;5093249;28;20104;-77
2021/04/24 07:43:07;;;;;;;18.58;6.75;;;10.20;63.40;;;;;;5093403;28;20099;-77
2021/04/24 07:45:33;;;;;;;13.68;6.38;;;10.40;63.10;;;;;;5093180;28;20372;-77
2021/04/24 07:47:58;;;;;;;12.00;6.25;;;10.30;63.20;;;;;;5093616;28;20428;-77
2021/04/24 07:50:24;;;;;;;15.95;5.82;;;10.20;63.30;;;;;;5092912;28;20042;-78
2021/04/24 07:52:49;;;;;;;12.00;6.10;;;10.20;62.70;;;;;;5100942;28;20031;-78
2021/04/24 07:55:15;;;;;;;12.52;5.13;;;10.10;62.60;;;;;;5101698;28;20115;-76
2021/04/24 07:57:42;;;;;;;8.98;4.78;;;10.10;62.50;;;;;;5108070;28;20118;-78
2021/04/24 08:00:10;;;;;;;11.23;5.43;;;10.20;62.90;;;;;;5105760;28;20496;-74
2021/04/24 08:02:35;;;;;;;11.57;5.38;;;10.30;62.50;;;;;;5106646;28;20027;-74
2021/04/24 08:05:07;;;;;;;10.80;5.25;;;10.50;61.80;;;;;;5109336;28;20019;-74
2021/04/24 08:07:32;;;;;;;9.07;5.32;;;10.60;61.30;;;;;;5106405;28;20055;-78
2021/04/24 08:09:58;;;;;;;13.95;5.97;;;10.80;60.60;;;;;;5104379;28;20101;-78
2021/04/24 08:12:24;;;;;;;10.73;5.40;;;10.90;61.30;;;;;;5106222;28;20020;-74
2021/04/24 08:14:49;;;;;;;7.35;4.95;;;11.00;60.80;;;;;;5090286;28;20115;-74
2021/04/24 08:17:15;;;;;;;10.15;4.80;;;11.20;60.40;;;;;;5088677;28;20032;-75
2021/04/24 08:19:42;;;;;;;8.68;4.95;;;11.30;59.40;;;;;;5107779;28;20027;-74
2021/04/24 08:22:08;;;;;;;7.65;4.68;;;11.40;59.00;;;;;;5088921;28;20060;-74
2021/04/24 08:24:34;;;;;;;11.48;5.43;;;11.50;58.70;;;;;;5106241;28;20552;-74
2021/04/24 08:27:00;;;;;;;9.77;4.38;;;11.70;57.90;;;;;;5109463;28;20118;-74
2021/04/24 08:29:26;;;;;;;9.00;4.38;;;11.80;57.80;;;;;;5106345;28;20093;-74
2021/04/24 08:31:52;;;;;;;8.05;4.53;;;11.90;57.60;;;;;;5106715;28;20410;-75
2021/04/24 08:34:20;;;;;;;14.20;5.35;;;12.10;56.70;;;;;;5106674;28;20050;-75
2021/04/24 08:36:46;;;;;;;9.20;4.60;;;12.20;56.10;;;;;;5108400;28;20020;-74
2021/04/24 08:39:12;;;;;;;9.15;4.60;;;12.20;55.80;;;;;;5106161;28;20027;-74
2021/04/24 08:41:37;;;;;;;9.25;4.97;;;12.20;55.90;;;;;;5107127;28;20080;-75
2021/04/24 08:44:04;;;;;;;10.18;4.93;;;12.40;55.80;;;;;;5108528;28;20066;-78
2021/04/24 08:46:30;;;;;;;11.68;4.97;;;12.50;55.00;;;;;;5105123;28;20406;-74
2021/04/24 08:48:57;;;;;;;14.13;5.47;;;12.50;54.40;;;;;;5106499;28;20036;-74
2021/04/24 08:51:25;;;;;;;7.50;4.60;;;12.30;54.30;;;;;;5088963;28;20031;-74
2021/04/24 08:53:51;;;;;;;8.97;5.07;;;12.40;53.90;;;;;;5104695;28;20027;-78
2021/04/24 08:56:18;;;;;;;8.00;4.85;;;12.50;53.90;;;;;;5108940;28;20029;-78
2021/04/24 08:58:45;;;;;;;8.90;4.75;;;12.90;54.10;;;;;;5103287;28;20028;-78
2021/04/24 09:01:11;;;;;;;9.65;4.80;;;13.20;52.20;;;;;;5105558;28;20067;-78
2021/04/24 09:03:38;;;;;;;8.57;4.60;;;13.40;51.60;;;;;;5104578;28;20042;-78
2021/04/24 09:06:04;;;;;;;11.63;4.68;;;13.70;50.90;;;;;;5093117;28;20036;-79
2021/04/24 09:08:30;;;;;;;8.57;4.38;;;13.80;50.80;;;;;;5098637;28;20039;-78
2021/04/24 09:10:59;;;;;;;8.55;4.15;;;14.00;49.90;;;;;;5099017;28;20607;-78
2021/04/24 09:13:26;;;;;;;8.63;4.00;;;14.10;49.00;;;;;;5104042;28;20087;-79
2021/04/24 09:15:52;;;;;;;6.68;3.17;;;14.20;48.00;;;;;;5103890;28;20011;-78
2021/04/24 09:18:19;;;;;;;11.73;5.05;;;14.40;47.50;;;;;;5105287;28;20030;-79
2021/04/24 09:20:53;;;;;;;9.57;4.25;;;14.40;48.00;;;;;;5104516;28;20047;-79
2021/04/24 09:23:29;;;;;;;9.77;4.20;;;14.40;48.40;;;;;;5102084;28;20533;-79
2021/04/24 09:26:02;;;;;;;5.85;3.42;;;14.30;48.80;;;;;;5105717;28;20064;-78
2021/04/24 09:28:35;;;;;;;11.00;3.92;;;14.40;47.80;;;;;;5100693;28;20051;-79
2021/04/24 09:31:19;;;;;;;5.57;3.35;;;14.30;46.40;;;;;;5097659;28;20118;-79
2021/04/24 09:33:47;;;;;;;6.15;3.58;;;14.20;47.40;;;;;;5103694;28;20047;-79
2021/04/24 09:36:13;;;;;;;10.18;3.88;;;14.20;47.30;;;;;;5095349;28;20077;-78
2021/04/24 09:38:45;;;;;;;7.18;3.85;;;14.30;47.10;;;;;;5089340;28;20112;-79
2021/04/24 09:41:30;;;;;;;7.70;3.85;;;14.40;47.50;;;;;;5090064;28;20020;-79
2021/04/24 09:44:05;;;;;;;5.35;3.70;;;14.50;46.90;;;;;;5071075;28;20040;-79
2021/04/24 09:46:33;;;;;;;8.48;4.15;;;14.60;46.90;;;;;;5071348;28;20028;-79
2021/04/24 09:49:20;;;;;;;9.70;4.63;;;14.60;47.20;;;;;;5070762;28;20061;-80
2021/04/24 09:51:49;;;;;;;9.75;4.32;;;14.70;47.00;;;;;;5082983;28;20016;-78
2021/04/24 09:54:16;;;;;;;;;;;14.70;46.60;;;;;;5090861;28;20023;-78
2021/04/24 09:56:42;;;;;;;9.95;3.85;;;14.70;46.40;;;;;;5076800;28;19990;-78
2021/04/24 09:59:10;;;;;;;6.80;3.70;;;14.70;45.60;;;;;;5091283;28;20024;-78
2021/04/24 10:01:38;;;;;;;8.98;4.75;;;14.70;45.70;;;;;;5084670;28;20035;-78
2021/04/24 10:04:11;;;;;;;9.07;4.28;;;14.50;44.70;;;;;;5092958;28;20021;-79
2021/04/24 10:06:37;;;;;;;6.47;3.83;;;14.40;45.50;;;;;;5092989;28;20016;-81
2021/04/24 10:09:37;;;;;;;7.93;4.32;;;14.40;46.20;;;;;;5092510;28;20020;-84
2021/04/24 10:12:08;;;;;;;7.53;4.10;;;14.50;45.30;;;;;;5096681;28;20030;-81
2021/04/24 10:14:33;;;;;;;7.35;3.53;;;14.30;45.30;;;;;;5095202;28;20012;-81
2021/04/24 10:17:02;;;;;;;6.90;3.70;;;14.20;46.00;;;;;;5096763;28;20035;-82
2021/04/24 10:19:29;;;;;;;12.13;4.07;;;14.20;45.70;;;;;;5096827;28;20036;-81
2021/04/24 10:21:55;;;;;;;10.82;3.83;;;14.20;46.70;;;;;;5094988;28;20030;-81
2021/04/24 10:24:26;;;;;;;5.60;3.75;;;14.50;46.30;;;;;;5094979;28;20020;-81
2021/04/24 10:26:52;;;;;;;11.70;3.90;;;14.70;45.80;;;;;;5094854;28;20032;-81
2021/04/24 10:29:19;;;;;;;7.63;3.53;;;15.00;45.70;;;;;;5095012;28;20044;-81
2021/04/24 10:31:45;;;;;;;6.70;3.75;;;15.30;45.10;;;;;;5096495;28;20020;-81
2021/04/24 10:34:11;;;;;;;7.72;4.38;;;15.70;44.70;;;;;;5095136;28;20024;-81
2021/04/24 10:36:38;;;;;;;9.52;4.00;;;15.90;43.70;;;;;;5095179;28;20046;-81
2021/04/24 10:39:12;;;;;;;6.60;4.40;;;15.90;43.20;;;;;;5096111;28;20025;-81
2021/04/24 10:41:41;;;;;;;9.95;3.90;;;15.50;42.70;;;;;;5094854;28;20024;-81
2021/04/24 10:44:09;;;;;;;;;;;15.30;43.60;;;;;;5095292;28;20381;-81
2021/04/24 10:46:45;;;;;;;6.13;3.60;;;15.40;44.40;;;;;;5095060;28;20351;-81
2021/04/24 10:49:19;;;;;;;10.07;3.92;;;15.50;44.00;;;;;;5095550;28;20032;-81
2021/04/24 10:51:53;;;;;;;8.00;3.72;;;15.60;43.80;;;;;;5094888;28;20557;-82
2021/04/24 10:54:19;;;;;;;5.22;4.10;;;15.60;43.70;;;;;;5094454;28;20365;-81
2021/04/24 10:56:44;;;;;;;9.45;4.68;;;15.60;44.20;;;;;;5095837;28;20073;-81
2021/04/24 10:59:25;;;;;;;6.70;4.32;;;15.70;44.30;;;;;;5094850;28;20040;-81
2021/04/24 11:02:04;;;;;;;7.78;3.80;;;15.70;44.50;;;;;;5096053;28;20088;-81
2021/04/24 11:04:47;;;;;;;10.25;3.92;;;15.70;43.50;;;;;;5095893;28;20028;-81
2021/04/24 11:07:25;;;;;;;5.20;3.80;;;15.70;43.30;;;;;;5094878;28;20028;-81
2021/04/24 11:10:17;;;;;;;8.30;4.28;;;15.70;43.10;;;;;;5094719;28;20024;-82
2021/04/24 11:12:46;;;;;;;7.85;4.03;;;15.70;43.50;;;;;;5093642;28;20063;-81
2021/04/24 11:15:17;;;;;;;9.38;4.25;;;15.80;43.10;;;;;;5094268;28;20024;-81
2021/04/24 11:17:44;;;;;;;4.65;3.65;;;15.80;43.20;;;;;;5093142;28;20031;-81
2021/04/24 11:20:11;;;;;;;6.25;3.08;;;15.90;43.30;;;;;;5093961;28;20038;-81
2021/04/24 11:22:43;;;;;;;5.63;3.28;;;16.00;43.10;;;;;;5094576;28;20487;-77
2021/04/24 11:25:18;;;;;;;9.55;4.35;;;16.10;41.80;;;;;;5093684;28;20036;-77
2021/04/24 11:28:07;;;;;;;6.50;3.67;;;16.20;42.00;;;;;;5092540;28;20107;-77
2021/04/24 11:30:52;;;;;;;8.65;3.85;;;16.20;42.00;;;;;;5094508;28;20031;-77
2021/04/24 11:33:39;;;;;;;7.70;3.65;;;16.20;42.30;;;;;;5092540;28;20020;-81
2021/04/24 11:36:17;;;;;;;7.05;3.53;;;16.40;42.20;;;;;;5094942;28;20024;-81
2021/04/24 11:38:58;;;;;;;10.70;4.15;;;16.50;42.60;;;;;;5095381;28;20047;-81
2021/04/24 11:41:44;;;;;;;5.40;3.28;;;16.60;41.60;;;;;;5093925;28;20488;-81
2021/04/24 11:44:16;;;;;;;8.88;4.10;;;16.60;41.90;;;;;;5095290;28;20039;-80
2021/04/24 11:46:42;;;;;;;5.95;3.65;;;16.60;41.90;;;;;;5093462;28;20020;-81
2021/04/24 11:49:13;;;;;;;7.88;3.60;;;16.70;41.30;;;;;;5093384;28;20034;-81
2021/04/24 11:52:00;;;;;;;7.25;3.63;;;16.80;39.90;;;;;;5093620;28;20026;-81
2021/04/24 11:54:25;;;;;;;7.45;3.33;;;16.70;40.90;;;;;;5078123;28;20369;-82
2021/04/24 11:56:51;;;;;;;4.95;3.38;;;16.60;40.60;;;;;;5093315;28;20504;-83
2021/04/24 11:59:28;;;;;;;4.95;3.10;;;16.60;40.70;;;;;;5094846;28;20096;-81
2021/04/24 12:02:01;;;;;;;5.80;3.60;;;16.80;40.70;;;;;;5094492;28;20028;-81
2021/04/24 12:04:37;;;;;;;4.65;3.22;;;16.90;40.10;;;;;;5093187;28;20028;-82
2021/04/24 12:07:14;;;;;;;6.15;3.05;;;16.80;39.70;;;;;;5094618;28;20144;-82
2021/04/24 12:09:46;;;;;;;4.65;3.00;;;16.90;40.20;;;;;;5084735;28;20028;-83
2021/04/24 12:12:20;;;;;;;5.22;3.15;;;17.00;39.70;;;;;;5093176;28;20487;-83
2021/04/24 12:14:46;;;;;;;5.63;2.80;;;17.00;38.80;;;;;;5093260;28;20094;-84
2021/04/24 12:17:17;;;;;;;5.20;3.33;;;16.90;38.90;;;;;;5094404;28;20427;-82
2021/04/24 12:19:45;;;;;;;5.47;3.03;;;17.00;39.20;;;;;;5074074;28;20025;-83
2021/04/24 12:22:16;;;;;;;4.77;2.80;;;17.30;39.60;;;;;;5084607;28;20024;-78
2021/04/24 12:25:06;;;;;;;4.57;2.45;;;17.30;38.30;;;;;;5093967;28;20024;-78
2021/04/24 12:27:41;;;;;;;13.45;6.78;;;17.30;37.80;;;;;;5092235;28;20036;-78
2021/04/24 12:30:18;;;;;;;7.35;4.82;;;17.40;38.30;;;;;;5093012;28;20020;-78
2021/04/24 12:32:55;;;;;;;7.20;3.03;;;17.50;38.30;;;;;;5092953;28;20024;-78
2021/04/24 12:35:27;;;;;;;6.35;2.90;;;17.60;38.00;;;;;;5093279;28;20532;-77
2021/04/24 12:38:16;;;;;;;4.63;2.55;;;17.70;37.50;;;;;;5093548;28;20028;-78
2021/04/24 12:40:52;;;;;;;6.70;2.60;;;17.60;36.80;;;;;;5093735;28;20089;-78
2021/04/24 12:43:27;;;;;;;5.20;2.80;;;17.70;36.70;;;;;;5091964;28;20020;-78
2021/04/24 12:45:56;;;;;;;8.85;3.25;;;17.70;36.60;;;;;;5072235;28;20448;-78
2021/04/24 12:48:27;;;;;;;7.35;3.70;;;17.60;36.60;;;;;;5091488;28;20036;-77
2021/04/24 12:50:58;;;;;;;9.52;3.20;;;17.60;37.10;;;;;;5093674;28;20047;-77